createdAt,value
2023-02-09T00:01:31.533Z,102865.06
2023-02-09T00:03:59.959Z,102865.75
2023-02-09T00:06:29.787Z,102863.94
2023-02-09T00:08:58.456Z,102848.28
2023-02-09T00:11:48.184Z,102849.88
2023-02-09T00:14:20.298Z,102841.03
2023-02-09T00:16:48.976Z,102845.25
2023-02-09T00:19:15.842Z,102846.94
2023-02-09T00:21:42.612Z,102842.38
2023-02-09T00:24:10.758Z,102830.94
2023-02-09T00:26:38.800Z,102834.22
2023-02-09T00:29:06.603Z,102835.69
2023-02-09T00:31:34.251Z,102833.88
2023-02-09T00:34:01.853Z,102828.56
2023-02-09T00:36:29.236Z,102823.22
2023-02-09T00:38:56.616Z,102815.19
2023-02-09T00:41:43.343Z,102834.19
2023-02-09T00:44:12.176Z,102827.16
2023-02-09T00:46:38.988Z,102828.75
2023-02-09T00:49:05.803Z,102823.56
2023-02-09T00:51:32.601Z,102827.72
2023-02-09T00:53:59.442Z,102826.03
2023-02-09T00:56:26.265Z,102809.50
2023-02-09T00:58:53.031Z,102823.28
2023-02-09T01:01:19.854Z,102815.38
2023-02-09T01:03:47.228Z,102806.66
2023-02-09T01:06:13.977Z,102804.97
2023-02-09T01:08:40.745Z,102816.28
2023-02-09T01:11:12.673Z,102807.66
2023-02-09T01:13:39.942Z,102807.66
2023-02-09T01:16:17.029Z,102795.69
2023-02-09T01:18:44.023Z,102794.78
2023-02-09T01:21:16.578Z,102785.28
2023-02-09T01:23:43.641Z,102794.09
2023-02-09T01:26:14.875Z,102792.31
2023-02-09T01:28:42.013Z,102792.31
2023-02-09T01:31:30.856Z,102787.31
2023-02-09T01:34:00.404Z,102785.50
2023-02-09T01:36:28.951Z,102781.97
2023-02-09T01:38:58.768Z,102786.41
2023-02-09T01:41:26.340Z,102782.09
2023-02-09T01:44:05.674Z,102770.09
2023-02-09T01:46:35.637Z,102762.19
2023-02-09T01:49:17.630Z,102765.69
2023-02-09T01:51:49.094Z,102765.69
2023-02-09T01:54:24.019Z,102765.69
2023-02-09T01:56:56.627Z,102756.06
2023-02-09T01:59:23.824Z,102754.47
2023-02-09T02:01:52.321Z,102744.03
2023-02-09T02:04:20.804Z,102736.22
2023-02-09T02:06:48.275Z,102733.63
2023-02-09T02:09:17.552Z,102728.41
2023-02-09T02:11:47.448Z,102718.91
2023-02-09T02:14:36.460Z,102718.00
2023-02-09T02:17:21.690Z,102724.03
2023-02-09T02:20:16.107Z,102711.78
2023-02-09T02:23:28.835Z,102713.25
2023-02-09T02:26:33.317Z,102713.00
2023-02-09T02:29:28.800Z,102706.91
2023-02-09T02:32:31.103Z,102703.28
2023-02-09T02:35:16.425Z,102713.81
2023-02-09T02:38:05.929Z,102707.69
2023-02-09T02:40:49.871Z,102704.06
2023-02-09T02:43:19.305Z,102710.06
2023-02-09T02:46:04.742Z,102700.53
2023-02-09T02:48:51.668Z,102695.34
2023-02-09T02:51:33.367Z,102686.53
2023-02-09T02:54:10.565Z,102699.53
2023-02-09T02:56:42.156Z,102688.22
2023-02-09T02:59:14.569Z,102693.31
2023-02-09T03:01:47.935Z,102698.50
2023-02-09T03:04:16.087Z,102686.28
2023-02-09T03:06:42.864Z,102674.06
2023-02-09T03:09:09.767Z,102678.38
2023-02-09T03:11:42.068Z,102664.56
2023-02-09T03:14:28.089Z,102659.22
2023-02-09T03:17:37.179Z,102671.34
2023-02-09T03:20:16.062Z,102665.91
2023-02-09T03:22:49.192Z,102673.72
2023-02-09T03:25:22.837Z,102675.41
2023-02-09T03:28:08.138Z,102677.09
2023-02-09T03:30:35.938Z,102675.16
2023-02-09T03:33:04.472Z,102672.69
2023-02-09T03:35:40.111Z,102669.09
2023-02-09T03:38:07.233Z,102673.25
2023-02-09T03:40:35.020Z,102669.88
2023-02-09T03:43:01.811Z,102675.84
2023-02-09T03:45:28.632Z,102669.63
2023-02-09T03:47:55.388Z,102679.25
2023-02-09T03:50:22.160Z,102670.44
2023-02-09T03:52:48.918Z,102663.41
2023-02-09T03:55:15.685Z,102664.97
2023-02-09T03:57:42.464Z,102664.97
2023-02-09T04:00:10.337Z,102666.56
2023-02-09T04:02:37.283Z,102662.16
2023-02-09T04:05:05.849Z,102656.81
2023-02-09T04:07:32.982Z,102655.94
2023-02-09T04:09:59.757Z,102654.13
2023-02-09T04:12:26.524Z,102641.88
2023-02-09T04:14:53.287Z,102646.19
2023-02-09T04:17:20.062Z,102640.84
2023-02-09T04:19:46.830Z,102637.38
2023-02-09T04:22:13.626Z,102640.84
2023-02-09T04:24:40.382Z,102633.03
2023-02-09T04:27:07.143Z,102638.25
2023-02-09T04:29:33.982Z,102643.44
2023-02-09T04:32:00.941Z,102641.66
2023-02-09T04:34:27.809Z,102637.38
2023-02-09T04:36:54.593Z,102636.47
2023-02-09T04:39:21.367Z,102626.84
2023-02-09T04:41:48.159Z,102622.41
2023-02-09T04:44:14.940Z,102627.63
2023-02-09T04:46:42.301Z,102627.63
2023-02-09T04:49:10.036Z,102630.00
2023-02-09T04:51:36.940Z,102624.00
2023-02-09T04:54:03.746Z,102617.63
2023-02-09T04:56:30.528Z,102618.56
2023-02-09T04:59:15.713Z,102620.94
2023-02-09T05:01:42.479Z,102619.00
2023-02-09T05:04:09.260Z,102613.69
2023-02-09T05:06:36.049Z,102610.88
2023-02-09T05:09:03.149Z,102616.06
2023-02-09T05:11:29.948Z,102615.94
2023-02-09T05:13:56.727Z,102601.13
2023-02-09T05:16:23.688Z,102604.41
2023-02-09T05:18:51.026Z,102596.59
2023-02-09T05:21:17.837Z,102607.00
2023-02-09T05:23:44.586Z,102605.19
2023-02-09T05:26:11.341Z,102607.66
2023-02-09T05:28:38.188Z,102608.56
2023-02-09T05:31:05.089Z,102607.66
2023-02-09T05:33:31.929Z,102604.97
2023-02-09T05:35:58.774Z,102606.75
2023-02-09T05:38:25.638Z,102604.97
2023-02-09T05:40:52.423Z,102603.16
2023-02-09T05:43:19.436Z,102596.13
2023-02-09T05:45:46.608Z,102601.31
2023-02-09T05:48:13.440Z,102594.31
2023-02-09T05:50:40.306Z,102594.31
2023-02-09T05:53:08.462Z,102592.47
2023-02-09T05:55:35.262Z,102595.91
2023-02-09T05:58:02.044Z,102598.50
2023-02-09T06:00:29.831Z,102591.59
2023-02-09T06:02:56.933Z,102600.28
2023-02-09T06:05:23.762Z,102601.09
2023-02-09T06:07:50.762Z,102603.72
2023-02-09T06:10:18.705Z,102604.72
2023-02-09T06:12:45.543Z,102609.00
2023-02-09T06:15:13.304Z,102610.81
2023-02-09T06:17:40.098Z,102607.44
2023-02-09T06:20:08.181Z,102603.16
2023-02-09T06:22:34.943Z,102608.44
2023-02-09T06:25:01.731Z,102611.19
2023-02-09T06:27:28.526Z,102609.59
2023-02-09T06:29:55.279Z,102616.50
2023-02-09T06:32:22.088Z,102614.00
2023-02-09T06:34:48.863Z,102615.94
2023-02-09T06:37:15.752Z,102631.69
2023-02-09T06:39:42.577Z,102641.41
2023-02-09T06:42:09.350Z,102637.31
2023-02-09T06:44:36.120Z,102637.56
2023-02-09T06:47:03.196Z,102643.66
2023-02-09T06:49:29.966Z,102641.31
2023-02-09T06:51:56.855Z,102642.31
2023-02-09T06:54:24.464Z,102636.47
2023-02-09T06:56:51.244Z,102634.84
2023-02-09T06:59:18.148Z,102615.84
2023-02-09T07:01:44.931Z,102614.28
2023-02-09T07:04:12.624Z,102612.69
2023-02-09T07:06:39.410Z,102625.03
2023-02-09T07:09:06.183Z,102619.28
2023-02-09T07:11:32.959Z,102623.78
2023-02-09T07:13:59.970Z,102625.03
2023-02-09T07:16:26.919Z,102621.09
2023-02-09T07:18:53.794Z,102635.34
2023-02-09T07:21:21.393Z,102627.88
2023-02-09T07:23:48.833Z,102632.59
2023-02-09T07:26:17.438Z,102632.16
2023-02-09T07:28:44.917Z,102638.75
2023-02-09T07:31:15.246Z,102623.78
2023-02-09T07:33:42.604Z,102630.66
2023-02-09T07:36:12.134Z,102638.91
2023-02-09T07:38:39.865Z,102639.31
2023-02-09T07:41:08.313Z,102635.38
2023-02-09T07:43:35.397Z,102637.59
2023-02-09T07:46:07.932Z,102632.72
2023-02-09T07:48:36.531Z,102641.50
2023-02-09T07:51:04.006Z,102638.63
2023-02-09T07:53:30.812Z,102637.22
2023-02-09T07:55:57.644Z,102641.97
2023-02-09T07:58:24.603Z,102635.25
2023-02-09T08:00:51.760Z,102637.38
2023-02-09T08:03:23.832Z,102636.06
2023-02-09T08:06:19.628Z,102648.69
2023-02-09T08:08:48.648Z,102641.19
2023-02-09T08:11:22.323Z,102641.59
2023-02-09T08:13:50.787Z,102630.66
2023-02-09T08:16:24.830Z,102628.03
2023-02-09T08:19:00.463Z,102619.28
2023-02-09T08:21:29.463Z,102610.31
2023-02-09T08:23:58.742Z,102611.81
2023-02-09T08:26:25.625Z,102621.97
2023-02-09T08:28:53.796Z,102610.25
2023-02-09T08:31:21.931Z,102613.28
2023-02-09T08:33:50.534Z,102621.50
2023-02-09T08:36:19.372Z,102613.03
2023-02-09T08:38:47.985Z,102603.75
2023-02-09T08:41:17.282Z,102607.50
2023-02-09T08:43:49.224Z,102594.66
2023-02-09T08:46:16.509Z,102610.56
2023-02-09T08:48:45.283Z,102619.50
2023-02-09T08:51:13.694Z,102621.22
2023-02-09T08:53:41.007Z,102627.53
2023-02-09T08:56:08.688Z,102623.44
2023-02-09T08:58:35.554Z,102622.69
2023-02-09T09:01:02.592Z,102627.19
2023-02-09T09:03:31.738Z,102639.66
2023-02-09T09:06:01.253Z,102642.50
2023-02-09T09:08:29.126Z,102645.28
2023-02-09T09:10:56.103Z,102633.22
2023-02-09T09:13:24.230Z,102636.81
2023-02-09T09:15:52.489Z,102651.09
2023-02-09T09:18:19.396Z,102644.25
2023-02-09T09:20:46.157Z,102642.81
2023-02-09T09:23:13.742Z,102643.06
2023-02-09T09:25:41.017Z,102645.94
2023-02-09T09:28:08.901Z,102643.53
2023-02-09T09:30:36.366Z,102643.88
2023-02-09T09:33:03.639Z,102643.34
2023-02-09T09:35:31.167Z,102647.16
2023-02-09T09:37:58.448Z,102644.81
2023-02-09T09:40:29.810Z,102647.81
2023-02-09T09:43:04.210Z,102654.22
2023-02-09T09:45:35.277Z,102655.31
2023-02-09T09:48:02.490Z,102659.91
2023-02-09T09:50:42.027Z,102662.16
2023-02-09T09:53:35.386Z,102665.97
2023-02-09T09:56:07.081Z,102657.38
2023-02-09T09:58:39.606Z,102654.38
2023-02-09T10:01:11.652Z,102645.06
2023-02-09T10:03:38.607Z,102635.75
2023-02-09T10:06:21.590Z,102646.59
2023-02-09T10:08:57.298Z,102645.94
2023-02-09T10:11:43.151Z,102643.59
2023-02-09T10:14:10.365Z,102637.59
2023-02-09T10:16:40.441Z,102640.38
2023-02-09T10:19:23.572Z,102644.16
2023-02-09T10:21:50.536Z,102640.72
2023-02-09T10:24:32.769Z,102648.16
2023-02-09T10:27:31.023Z,102649.13
2023-02-09T10:30:22.977Z,102657.16
2023-02-09T10:32:49.800Z,102646.84
2023-02-09T10:35:27.948Z,102643.72
2023-02-09T10:38:04.105Z,102639.66
2023-02-09T10:40:40.334Z,102651.31
2023-02-09T10:43:21.923Z,102636.66
2023-02-09T10:45:55.867Z,102637.81
2023-02-09T10:48:24.796Z,102639.53
2023-02-09T10:50:56.010Z,102637.91
2023-02-09T10:53:33.579Z,102632.97
2023-02-09T10:56:12.130Z,102636.84
2023-02-09T10:58:39.426Z,102625.78
2023-02-09T11:01:09.437Z,102625.13
2023-02-09T11:03:46.287Z,102617.50
2023-02-09T11:06:19.508Z,102614.19
2023-02-09T11:08:59.596Z,102609.09
2023-02-09T11:11:32.852Z,102629.34
2023-02-09T11:14:00.764Z,102629.53
2023-02-09T11:16:54.667Z,102614.06
2023-02-09T11:19:31.121Z,102609.00
2023-02-09T11:22:41.329Z,102592.66
2023-02-09T11:25:37.121Z,102583.22
2023-02-09T11:28:28.665Z,102580.88
2023-02-09T11:31:39.375Z,102570.53
2023-02-09T11:34:40.212Z,102585.69
2023-02-09T11:37:50.267Z,102585.78
2023-02-09T11:40:33.515Z,102567.63
2023-02-09T11:43:17.402Z,102546.59
2023-02-09T11:45:53.187Z,102531.88
2023-02-09T11:48:26.020Z,102542.56
2023-02-09T11:50:58.493Z,102555.03
2023-02-09T11:53:59.562Z,102555.31
2023-02-09T11:56:28.796Z,102559.84
2023-02-09T11:59:26.876Z,102553.97
2023-02-09T12:02:37.318Z,102563.72
2023-02-09T12:05:05.641Z,102563.81
2023-02-09T12:08:05.424Z,102567.63
2023-02-09T12:10:49.133Z,102568.69
2023-02-09T12:13:43.981Z,102564.50
2023-02-09T12:16:13.639Z,102551.41
2023-02-09T12:18:42.224Z,102556.75
2023-02-09T12:21:09.679Z,102557.09
2023-02-09T12:23:41.505Z,102569.72
2023-02-09T12:26:17.466Z,102574.44
2023-02-09T12:29:22.617Z,102580.97
2023-02-09T12:32:01.574Z,102575.88
2023-02-09T12:34:41.383Z,102573.38
2023-02-09T12:37:14.273Z,102584.16
2023-02-09T12:40:12.056Z,102569.66
2023-02-09T12:43:02.169Z,102571.59
2023-02-09T12:45:43.788Z,102551.69
2023-02-09T12:48:13.640Z,102552.00
2023-02-09T12:50:43.500Z,102547.03
2023-02-09T12:53:22.209Z,102555.13
2023-02-09T12:56:08.928Z,102550.88
2023-02-09T12:58:44.756Z,102551.91
2023-02-09T13:01:16.456Z,102551.22
2023-02-09T13:04:05.253Z,102549.50
2023-02-09T13:06:47.959Z,102547.81
2023-02-09T13:09:28.886Z,102551.44
2023-02-09T13:12:14.530Z,102551.56
2023-02-09T13:14:47.476Z,102557.72
2023-02-09T13:17:28.795Z,102552.63
2023-02-09T13:20:35.948Z,102556.19
2023-02-09T13:23:40.333Z,102539.44
2023-02-09T13:26:26.325Z,102548.22
2023-02-09T13:29:20.843Z,102542.06
2023-02-09T13:32:03.858Z,102546.25
2023-02-09T13:35:04.828Z,102533.81
2023-02-09T13:37:49.535Z,102533.81
2023-02-09T13:40:33.607Z,102541.66
2023-02-09T13:43:18.862Z,102529.31
2023-02-09T13:45:51.738Z,102529.31
2023-02-09T13:48:38.882Z,102533.78
2023-02-09T13:51:20.645Z,102536.44
2023-02-09T13:54:00.147Z,102544.34
2023-02-09T13:56:28.624Z,102532.88
2023-02-09T13:58:55.970Z,102535.53
2023-02-09T14:01:30.266Z,102530.34
2023-02-09T14:04:09.950Z,102520.72
2023-02-09T14:06:48.982Z,102508.38
2023-02-09T14:09:24.622Z,102510.06
2023-02-09T14:11:56.536Z,102520.59
2023-02-09T14:15:11.208Z,102515.19
2023-02-09T14:17:38.962Z,102501.88
2023-02-09T14:20:22.362Z,102499.13
2023-02-09T14:23:01.161Z,102501.69
2023-02-09T14:25:30.350Z,102496.28
2023-02-09T14:27:58.236Z,102488.44
2023-02-09T14:30:31.992Z,102492.81
2023-02-09T14:33:03.277Z,102481.41
2023-02-09T14:35:41.114Z,102479.59
2023-02-09T14:38:42.698Z,102490.88
2023-02-09T14:41:32.312Z,102485.47
2023-02-09T14:44:21.459Z,102482.75
2023-02-09T14:46:57.017Z,102478.28
2023-02-09T14:49:24.831Z,102476.41
2023-02-09T14:52:02.285Z,102480.78
2023-02-09T14:54:33.167Z,102485.06
2023-02-09T14:57:01.095Z,102479.59
2023-02-09T14:59:28.104Z,102481.28
2023-02-09T15:01:55.521Z,102475.03
2023-02-09T15:04:22.324Z,102473.91
2023-02-09T15:06:59.846Z,102478.22
2023-02-09T15:09:33.749Z,102487.69
2023-02-09T15:12:07.125Z,102485.72
2023-02-09T15:14:45.735Z,102493.44
2023-02-09T15:17:18.276Z,102494.13
2023-02-09T15:19:46.201Z,102482.50
2023-02-09T15:22:16.085Z,102487.63
2023-02-09T15:24:44.832Z,102488.41
2023-02-09T15:27:36.318Z,102489.00
2023-02-09T15:30:14.092Z,102494.09
2023-02-09T15:32:40.875Z,102489.47
2023-02-09T15:35:08.213Z,102498.06
2023-02-09T15:37:37.473Z,102497.00
2023-02-09T15:40:55.470Z,102507.25
2023-02-09T15:43:42.132Z,102513.00
2023-02-09T15:46:28.510Z,102505.75
2023-02-09T15:48:55.421Z,102502.72
2023-02-09T15:51:28.604Z,102511.31
2023-02-09T15:53:58.982Z,102508.44
2023-02-09T15:56:25.890Z,102515.19
2023-02-09T15:58:54.327Z,102526.34
2023-02-09T16:01:21.166Z,102534.91
2023-02-09T16:03:48.027Z,102537.28
2023-02-09T16:06:19.881Z,102547.56
2023-02-09T16:08:48.200Z,102551.69
2023-02-09T16:11:27.111Z,102555.81
2023-02-09T16:13:54.635Z,102563.34
2023-02-09T16:16:21.457Z,102554.34
2023-02-09T16:18:48.255Z,102560.19
2023-02-09T16:21:30.615Z,102561.69
2023-02-09T16:24:01.129Z,102571.94
2023-02-09T16:26:30.128Z,102573.50
2023-02-09T16:28:57.376Z,102576.75
2023-02-09T16:31:25.353Z,102587.03
2023-02-09T16:33:52.531Z,102578.09
2023-02-09T16:36:23.746Z,102585.91
2023-02-09T16:38:50.914Z,102594.41
2023-02-09T16:41:37.208Z,102596.81
2023-02-09T16:44:26.614Z,102596.63
2023-02-09T16:46:55.945Z,102600.63
2023-02-09T16:49:40.603Z,102612.75
2023-02-09T16:52:17.567Z,102605.44
2023-02-09T16:54:58.428Z,102605.19
2023-02-09T16:57:26.974Z,102616.53
2023-02-09T16:59:54.843Z,102619.88
2023-02-09T17:02:41.575Z,102625.13
2023-02-09T17:05:19.317Z,102617.34
2023-02-09T17:07:54.924Z,102622.59
2023-02-09T17:10:28.137Z,102617.50
2023-02-09T17:12:54.957Z,102613.31
2023-02-09T17:15:30.592Z,102618.00
2023-02-09T17:18:03.120Z,102615.66
2023-02-09T17:20:43.185Z,102617.56
2023-02-09T17:23:21.329Z,102616.91
2023-02-09T17:25:50.756Z,102617.06
2023-02-09T17:28:19.152Z,102620.66
2023-02-09T17:30:47.715Z,102617.41
2023-02-09T17:33:23.849Z,102614.94
2023-02-09T17:38:44.523Z,102624.78
2023-02-09T17:41:21.632Z,102624.13
2023-02-09T17:43:50.721Z,102619.88
2023-02-09T17:46:20.147Z,102623.66
2023-02-09T17:48:47.857Z,102625.59
2023-02-09T17:51:31.560Z,102627.56
2023-02-09T17:53:58.327Z,102634.78
2023-02-09T17:56:25.195Z,102633.13
2023-02-09T17:58:51.991Z,102630.69
2023-02-09T18:01:27.599Z,102636.19
2023-02-09T18:03:57.699Z,102639.03
2023-02-09T18:06:35.316Z,102652.34
2023-02-09T18:09:09.927Z,102653.28
2023-02-09T18:11:52.058Z,102653.47
2023-02-09T18:14:21.436Z,102650.03
2023-02-09T18:16:48.827Z,102657.16
2023-02-09T18:19:17.777Z,102652.91
2023-02-09T18:21:58.200Z,102651.38
2023-02-09T18:24:29.018Z,102656.72
2023-02-09T18:26:56.186Z,102667.25
2023-02-09T18:29:26.055Z,102658.69
2023-02-09T18:31:52.823Z,102663.13
2023-02-09T18:34:20.526Z,102657.13
2023-02-09T18:36:47.304Z,102654.56
2023-02-09T18:39:17.275Z,102650.31
2023-02-09T18:41:46.204Z,102643.41
2023-02-09T18:44:13.082Z,102647.84
2023-02-09T18:46:42.049Z,102651.44
2023-02-09T18:49:12.505Z,102655.06
2023-02-09T18:51:39.276Z,102656.78
2023-02-09T18:54:06.101Z,102663.94
2023-02-09T18:56:33.078Z,102657.81
2023-02-09T18:58:59.842Z,102666.63
2023-02-09T19:01:26.686Z,102666.81
2023-02-09T19:03:54.068Z,102664.16
2023-02-09T19:06:22.683Z,102658.16
2023-02-09T19:08:50.184Z,102652.97
2023-02-09T19:11:21.292Z,102660.09
2023-02-09T19:14:07.576Z,102655.84
2023-02-09T19:16:37.182Z,102661.09
2023-02-09T19:19:04.310Z,102658.53
2023-02-09T19:21:32.199Z,102664.69
2023-02-09T19:23:59.089Z,102662.19
2023-02-09T19:26:25.867Z,102672.00
2023-02-09T19:28:52.696Z,102666.81
2023-02-09T19:31:19.558Z,102676.50
2023-02-09T19:33:46.400Z,102671.31
2023-02-09T19:36:13.274Z,102660.81
2023-02-09T19:38:40.092Z,102672.31
2023-02-09T19:41:11.905Z,102678.53
2023-02-09T19:43:39.909Z,102673.28
2023-02-09T19:46:07.650Z,102669.00
2023-02-09T19:48:37.271Z,102669.00
2023-02-09T19:51:04.241Z,102663.75
2023-02-09T19:53:31.508Z,102669.91
2023-02-09T19:55:58.312Z,102657.63
2023-02-09T19:58:25.248Z,102661.16
2023-02-09T20:00:53.611Z,102668.16
2023-02-09T20:03:20.429Z,102652.38
2023-02-09T20:05:47.584Z,102654.28
2023-02-09T20:08:17.687Z,102657.81
2023-02-09T20:10:45.295Z,102647.19
2023-02-09T20:13:13.220Z,102650.75
2023-02-09T20:15:42.197Z,102655.09
2023-02-09T20:18:09.312Z,102649.75
2023-02-09T20:20:40.342Z,102648.94
2023-02-09T20:23:09.061Z,102663.81
2023-02-09T20:25:35.840Z,102656.75
2023-02-09T20:28:02.819Z,102667.28
2023-02-09T20:30:29.669Z,102661.03
2023-02-09T20:32:56.424Z,102661.84
2023-02-09T20:35:23.252Z,102662.75
2023-02-09T20:37:52.667Z,102665.28
2023-02-09T20:40:20.034Z,102660.94
2023-02-09T20:43:05.256Z,102661.84
2023-02-09T20:45:50.410Z,102655.63
2023-02-09T20:48:17.459Z,102658.25
2023-02-09T20:50:45.180Z,102658.41
2023-02-09T20:53:12.511Z,102656.75
2023-02-09T20:55:39.341Z,102653.28
2023-02-09T20:58:06.287Z,102650.81
2023-02-09T21:00:35.692Z,102660.50
2023-02-09T21:03:02.521Z,102670.19
2023-02-09T21:05:29.397Z,102656.22
2023-02-09T21:07:56.223Z,102659.81
2023-02-09T21:10:23.475Z,102660.81
2023-02-09T21:12:50.326Z,102651.19
2023-02-09T21:15:17.159Z,102652.09
2023-02-09T21:17:47.875Z,102655.69
2023-02-09T21:20:18.012Z,102653.16
2023-02-09T21:22:44.778Z,102659.31
2023-02-09T21:25:11.578Z,102654.03
2023-02-09T21:27:38.947Z,102661.13
2023-02-09T21:30:06.477Z,102665.63
2023-02-09T21:32:34.916Z,102662.16
2023-02-09T21:35:01.733Z,102664.88
2023-02-09T21:37:31.896Z,102671.09
2023-02-09T21:40:02.758Z,102675.47
2023-02-09T21:42:31.164Z,102676.38
2023-02-09T21:44:59.456Z,102676.44
2023-02-09T21:47:27.977Z,102678.25
2023-02-09T21:49:54.929Z,102671.25
2023-02-09T21:52:21.969Z,102674.78
2023-02-09T21:54:48.921Z,102687.13
2023-02-09T21:57:15.927Z,102686.22
2023-02-09T21:59:42.996Z,102694.09
2023-02-09T22:02:16.635Z,102699.38
2023-02-09T22:04:44.757Z,102710.72
2023-02-09T22:07:12.974Z,102696.72
2023-02-09T22:09:40.246Z,102709.06
2023-02-09T22:12:07.658Z,102705.63
2023-02-09T22:14:34.451Z,102705.69
2023-02-09T22:17:01.260Z,102706.53
2023-02-09T22:19:28.029Z,102706.59
2023-02-09T22:21:57.592Z,102712.69
2023-02-09T22:24:24.811Z,102705.63
2023-02-09T22:26:51.618Z,102708.31
2023-02-09T22:29:18.389Z,102700.34
2023-02-09T22:31:45.781Z,102709.22
2023-02-09T22:34:12.699Z,102703.03
2023-02-09T22:36:39.679Z,102714.34
2023-02-09T22:39:07.829Z,102718.78
2023-02-09T22:41:35.229Z,102726.66
2023-02-09T22:44:09.800Z,102739.88
2023-02-09T22:46:39.128Z,102745.91
2023-02-09T22:49:09.201Z,102761.69
2023-02-09T22:51:36.595Z,102756.44
2023-02-09T22:54:05.293Z,102764.31
2023-02-09T22:56:32.879Z,102758.06
2023-02-09T22:59:01.171Z,102756.28
2023-02-09T23:01:28.796Z,102762.22
2023-02-09T23:03:55.929Z,102769.03
2023-02-09T23:06:26.889Z,102761.91
2023-02-09T23:08:57.122Z,102770.63
2023-02-09T23:11:23.982Z,102763.41
2023-02-09T23:14:03.886Z,102771.16
2023-02-09T23:16:35.664Z,102771.97
2023-02-09T23:19:06.569Z,102770.16
2023-02-09T23:21:39.856Z,102768.44
2023-02-09T23:24:07.936Z,102777.13
2023-02-09T23:26:35.190Z,102770.09
2023-02-09T23:29:06.568Z,102768.28
2023-02-09T23:31:34.018Z,102764.75
2023-02-09T23:34:00.876Z,102781.19
2023-02-09T23:36:30.986Z,102774.88
2023-02-09T23:39:01.705Z,102784.31
2023-02-09T23:41:29.159Z,102791.22
2023-02-09T23:43:56.819Z,102777.75
2023-02-09T23:46:28.726Z,102784.59
2023-02-09T23:48:56.711Z,102792.22
2023-02-09T23:51:33.891Z,102804.38
2023-02-09T23:54:04.755Z,102798.06
2023-02-09T23:56:36.909Z,102804.97
2023-02-09T23:59:07.621Z,102809.34
